PKVK1: Neosho R, nr Parkerville KS

Data processed at Tue May 21 2019 23:50


All information presented herein is the property of the government of the United States of America and may be revised or deleted at any time without prior notice.
Dissemination of this information without the expressed written consent of the Public Affairs Office, Tulsa District U.S. Army Corps of Engineers is strictly prohibited.
These data are gathered electronically and, as presented, have not undergone any form of quality control. These data are not guaranteed to be valid or correct.
Go to home page.
Go to station list.
Go to home page.

Downstream station:


Previous Day
Next Day
Current Day
    
SHEF ID:       PKVK1     NEOSHO R NR PARKERVILLE, KS
STATION TYPE:  
Regulating: Stage =    20.00, Flow =     3767

               PRECIP     STAGE  RIV-FLOW  BAT-LOAD
                   in        ft       cfs      volt
              Ccp-Rev   Ccp-Rev   Ccp-Rev   Ccp-Rev
(US/Central)
05/21 00:00      0.00     18.71      3256     12.57
05/21 01:00      0.00     18.21      3062     12.57
05/21 02:00      0.00     17.35      2734     12.57
05/21 03:00      0.00     16.27      2332     12.57
05/21 04:00      0.01     15.22      1955     12.57
05/21 05:00      0.19     14.45      1686     12.57
05/21 06:00      0.34     13.86      1486     12.57
05/21 07:00      0.32     14.07      1557     12.57
05/21 08:00      0.16     15.25      1965     12.57
05/21 09:00      0.06     17.05      2621     12.57
05/21 10:00      0.00     18.44      3151     12.65
05/21 11:00      0.00     19.26      3472     12.73
05/21 12:00      0.01     19.64      3623     12.81
05/21 13:00      0.01     19.43      3539     12.81
05/21 14:00      0.00     18.74      3268     12.89
05/21 15:00      0.00     17.97      2969     13.05
05/21 16:00      0.00     16.81      2531     13.05
05/21 17:00      0.00     16.08      2263     13.05
05/21 18:00      0.09     15.06      1898     12.81
05/21 19:00      0.00     14.29      1631     12.81
05/21 20:00      0.00     13.49      1363     12.73
05/21 21:00      0.00     12.75      1124     12.65
05/21 22:00      0.00     12.44      1026     12.65
05/21 23:00      ----      ----      ----      ----